sensor_id;sensor_type;location;lat;lon;timestamp;P1;durP1;ratioP1;P2;durP2;ratioP2
29908;SDS011;36247;51.952;6.146;2023-07-29T00:00:43;15.57;;;12.98;;
29908;SDS011;36247;51.952;6.146;2023-07-29T00:03:09;17.85;;;13.57;;
29908;SDS011;36247;51.952;6.146;2023-07-29T00:05:38;17.30;;;12.88;;
29908;SDS011;36247;51.952;6.146;2023-07-29T00:08:08;15.55;;;12.43;;
29908;SDS011;36247;51.952;6.146;2023-07-29T00:10:36;14.98;;;12.07;;
29908;SDS011;36247;51.952;6.146;2023-07-29T00:13:03;15.00;;;12.15;;
29908;SDS011;36247;51.952;6.146;2023-07-29T00:15:29;14.05;;;12.55;;
29908;SDS011;36247;51.952;6.146;2023-07-29T00:17:55;16.00;;;12.30;;
29908;SDS011;36247;51.952;6.146;2023-07-29T00:20:20;15.70;;;12.80;;
29908;SDS011;36247;51.952;6.146;2023-07-29T00:22:46;15.90;;;12.90;;
29908;SDS011;36247;51.952;6.146;2023-07-29T00:25:13;15.00;;;12.02;;
29908;SDS011;36247;51.952;6.146;2023-07-29T00:27:38;15.88;;;12.65;;
29908;SDS011;36247;51.952;6.146;2023-07-29T00:30:08;14.43;;;12.27;;
29908;SDS011;36247;51.952;6.146;2023-07-29T00:32:35;14.52;;;12.85;;
29908;SDS011;36247;51.952;6.146;2023-07-29T00:35:01;24.98;;;13.35;;
29908;SDS011;36247;51.952;6.146;2023-07-29T00:37:27;15.00;;;12.88;;
29908;SDS011;36247;51.952;6.146;2023-07-29T00:39:53;15.07;;;12.45;;
29908;SDS011;36247;51.952;6.146;2023-07-29T00:42:19;17.75;;;12.25;;
29908;SDS011;36247;51.952;6.146;2023-07-29T00:44:44;15.68;;;11.82;;
29908;SDS011;36247;51.952;6.146;2023-07-29T00:47:10;13.35;;;11.50;;
29908;SDS011;36247;51.952;6.146;2023-07-29T00:49:42;13.02;;;9.70;;
29908;SDS011;36247;51.952;6.146;2023-07-29T00:52:09;11.38;;;9.43;;
29908;SDS011;36247;51.952;6.146;2023-07-29T00:54:42;12.13;;;10.10;;
29908;SDS011;36247;51.952;6.146;2023-07-29T00:57:08;14.32;;;11.55;;
29908;SDS011;36247;51.952;6.146;2023-07-29T00:59:40;13.95;;;11.20;;
29908;SDS011;36247;51.952;6.146;2023-07-29T01:02:08;14.18;;;11.80;;
29908;SDS011;36247;51.952;6.146;2023-07-29T01:04:34;15.80;;;11.55;;
29908;SDS011;36247;51.952;6.146;2023-07-29T01:07:14;18.83;;;12.13;;
29908;SDS011;36247;51.952;6.146;2023-07-29T01:15:09;13.93;;;10.73;;
29908;SDS011;36247;51.952;6.146;2023-07-29T01:17:54;14.32;;;10.75;;
29908;SDS011;36247;51.952;6.146;2023-07-29T01:20:25;13.57;;;11.93;;
29908;SDS011;36247;51.952;6.146;2023-07-29T01:22:51;15.57;;;11.75;;
29908;SDS011;36247;51.952;6.146;2023-07-29T01:25:16;15.23;;;13.32;;
29908;SDS011;36247;51.952;6.146;2023-07-29T01:27:45;17.48;;;13.77;;
29908;SDS011;36247;51.952;6.146;2023-07-29T01:30:13;12.85;;;11.48;;
29908;SDS011;36247;51.952;6.146;2023-07-29T01:32:50;17.65;;;12.50;;
29908;SDS011;36247;51.952;6.146;2023-07-29T01:35:23;14.48;;;11.85;;
29908;SDS011;36247;51.952;6.146;2023-07-29T01:38:03;13.07;;;11.18;;
29908;SDS011;36247;51.952;6.146;2023-07-29T01:40:32;14.60;;;11.55;;
29908;SDS011;36247;51.952;6.146;2023-07-29T01:43:00;11.57;;;10.10;;
29908;SDS011;36247;51.952;6.146;2023-07-29T01:45:25;16.05;;;12.02;;
29908;SDS011;36247;51.952;6.146;2023-07-29T01:47:51;12.98;;;11.32;;
29908;SDS011;36247;51.952;6.146;2023-07-29T01:50:17;14.23;;;11.73;;
29908;SDS011;36247;51.952;6.146;2023-07-29T01:52:44;13.93;;;12.20;;
29908;SDS011;36247;51.952;6.146;2023-07-29T01:55:10;16.90;;;12.82;;
29908;SDS011;36247;51.952;6.146;2023-07-29T01:57:38;17.67;;;13.38;;
29908;SDS011;36247;51.952;6.146;2023-07-29T02:00:09;12.98;;;9.75;;
29908;SDS011;36247;51.952;6.146;2023-07-29T02:02:42;12.43;;;10.70;;
29908;SDS011;36247;51.952;6.146;2023-07-29T02:05:09;14.75;;;12.02;;
29908;SDS011;36247;51.952;6.146;2023-07-29T02:07:39;13.43;;;10.85;;
29908;SDS011;36247;51.952;6.146;2023-07-29T02:10:10;16.10;;;13.55;;
29908;SDS011;36247;51.952;6.146;2023-07-29T02:12:38;15.30;;;13.25;;
29908;SDS011;36247;51.952;6.146;2023-07-29T02:15:09;15.20;;;12.90;;
29908;SDS011;36247;51.952;6.146;2023-07-29T02:17:35;16.63;;;13.05;;
29908;SDS011;36247;51.952;6.146;2023-07-29T02:20:01;15.98;;;12.68;;
29908;SDS011;36247;51.952;6.146;2023-07-29T02:22:28;15.80;;;11.85;;
29908;SDS011;36247;51.952;6.146;2023-07-29T02:24:54;14.60;;;12.50;;
29908;SDS011;36247;51.952;6.146;2023-07-29T02:27:20;18.25;;;13.38;;
29908;SDS011;36247;51.952;6.146;2023-07-29T02:29:45;17.48;;;13.15;;
29908;SDS011;36247;51.952;6.146;2023-07-29T02:32:12;18.50;;;13.80;;
29908;SDS011;36247;51.952;6.146;2023-07-29T02:34:38;21.05;;;14.13;;
29908;SDS011;36247;51.952;6.146;2023-07-29T02:37:08;15.57;;;13.30;;
29908;SDS011;36247;51.952;6.146;2023-07-29T02:39:34;17.25;;;14.90;;
29908;SDS011;36247;51.952;6.146;2023-07-29T02:41:59;18.00;;;14.43;;
29908;SDS011;36247;51.952;6.146;2023-07-29T02:44:25;19.88;;;15.27;;
29908;SDS011;36247;51.952;6.146;2023-07-29T02:46:51;18.95;;;15.60;;
29908;SDS011;36247;51.952;6.146;2023-07-29T02:49:17;21.05;;;15.60;;
29908;SDS011;36247;51.952;6.146;2023-07-29T02:51:44;17.02;;;14.65;;
29908;SDS011;36247;51.952;6.146;2023-07-29T02:54:10;22.75;;;15.85;;
29908;SDS011;36247;51.952;6.146;2023-07-29T02:56:38;21.58;;;14.85;;
29908;SDS011;36247;51.952;6.146;2023-07-29T02:59:03;18.23;;;15.32;;
29908;SDS011;36247;51.952;6.146;2023-07-29T03:01:30;19.30;;;15.25;;
29908;SDS011;36247;51.952;6.146;2023-07-29T03:03:56;20.15;;;15.95;;
29908;SDS011;36247;51.952;6.146;2023-07-29T03:06:21;21.55;;;17.92;;
29908;SDS011;36247;51.952;6.146;2023-07-29T03:08:47;20.67;;;15.38;;
29908;SDS011;36247;51.952;6.146;2023-07-29T03:11:14;21.45;;;16.40;;
29908;SDS011;36247;51.952;6.146;2023-07-29T03:13:43;19.85;;;15.25;;
29908;SDS011;36247;51.952;6.146;2023-07-29T03:16:13;21.02;;;15.80;;
29908;SDS011;36247;51.952;6.146;2023-07-29T03:18:48;21.25;;;16.23;;
29908;SDS011;36247;51.952;6.146;2023-07-29T03:21:13;26.42;;;17.05;;
29908;SDS011;36247;51.952;6.146;2023-07-29T03:23:42;19.25;;;16.05;;
29908;SDS011;36247;51.952;6.146;2023-07-29T03:26:09;19.85;;;15.73;;
29908;SDS011;36247;51.952;6.146;2023-07-29T03:28:39;23.23;;;16.35;;
29908;SDS011;36247;51.952;6.146;2023-07-29T03:31:09;24.00;;;17.10;;
29908;SDS011;36247;51.952;6.146;2023-07-29T03:33:38;22.38;;;17.00;;
29908;SDS011;36247;51.952;6.146;2023-07-29T03:36:09;21.30;;;15.95;;
29908;SDS011;36247;51.952;6.146;2023-07-29T03:38:35;21.25;;;15.65;;
29908;SDS011;36247;51.952;6.146;2023-07-29T03:41:09;20.48;;;15.27;;
29908;SDS011;36247;51.952;6.146;2023-07-29T03:43:38;22.02;;;14.90;;
29908;SDS011;36247;51.952;6.146;2023-07-29T03:46:04;20.83;;;14.75;;
29908;SDS011;36247;51.952;6.146;2023-07-29T03:48:31;18.35;;;13.48;;
29908;SDS011;36247;51.952;6.146;2023-07-29T03:50:57;18.17;;;12.52;;
29908;SDS011;36247;51.952;6.146;2023-07-29T03:53:22;15.38;;;12.63;;
29908;SDS011;36247;51.952;6.146;2023-07-29T03:55:48;23.17;;;11.95;;
29908;SDS011;36247;51.952;6.146;2023-07-29T03:58:15;18.92;;;11.25;;
29908;SDS011;36247;51.952;6.146;2023-07-29T04:00:42;16.10;;;10.98;;
29908;SDS011;36247;51.952;6.146;2023-07-29T04:03:08;16.27;;;11.32;;
29908;SDS011;36247;51.952;6.146;2023-07-29T04:05:35;15.93;;;11.40;;
29908;SDS011;36247;51.952;6.146;2023-07-29T04:08:00;14.43;;;10.80;;
29908;SDS011;36247;51.952;6.146;2023-07-29T04:10:26;17.52;;;10.70;;
29908;SDS011;36247;51.952;6.146;2023-07-29T04:12:52;13.07;;;10.15;;
29908;SDS011;36247;51.952;6.146;2023-07-29T04:15:17;13.55;;;9.65;;
29908;SDS011;36247;51.952;6.146;2023-07-29T04:17:43;13.98;;;8.65;;
29908;SDS011;36247;51.952;6.146;2023-07-29T04:20:10;12.57;;;8.70;;
29908;SDS011;36247;51.952;6.146;2023-07-29T04:22:42;10.60;;;8.32;;
29908;SDS011;36247;51.952;6.146;2023-07-29T04:25:09;9.20;;;7.78;;
29908;SDS011;36247;51.952;6.146;2023-07-29T04:27:37;9.73;;;8.05;;
29908;SDS011;36247;51.952;6.146;2023-07-29T04:30:03;11.35;;;7.60;;
29908;SDS011;36247;51.952;6.146;2023-07-29T04:32:29;11.57;;;7.97;;
29908;SDS011;36247;51.952;6.146;2023-07-29T04:34:55;9.60;;;7.40;;
29908;SDS011;36247;51.952;6.146;2023-07-29T04:37:20;11.48;;;6.85;;
29908;SDS011;36247;51.952;6.146;2023-07-29T04:39:46;9.98;;;7.45;;
29908;SDS011;36247;51.952;6.146;2023-07-29T04:42:13;9.82;;;8.48;;
29908;SDS011;36247;51.952;6.146;2023-07-29T04:44:41;11.55;;;7.97;;
29908;SDS011;36247;51.952;6.146;2023-07-29T04:47:09;10.68;;;7.72;;
29908;SDS011;36247;51.952;6.146;2023-07-29T04:49:44;11.35;;;7.80;;
29908;SDS011;36247;51.952;6.146;2023-07-29T04:52:10;11.95;;;9.30;;
29908;SDS011;36247;51.952;6.146;2023-07-29T04:54:41;11.10;;;8.45;;
29908;SDS011;36247;51.952;6.146;2023-07-29T04:57:09;10.23;;;8.60;;
29908;SDS011;36247;51.952;6.146;2023-07-29T04:59:38;12.63;;;8.73;;
29908;SDS011;36247;51.952;6.146;2023-07-29T05:02:04;13.65;;;8.60;;
29908;SDS011;36247;51.952;6.146;2023-07-29T05:04:30;11.52;;;8.18;;
29908;SDS011;36247;51.952;6.146;2023-07-29T05:06:56;12.23;;;8.60;;
29908;SDS011;36247;51.952;6.146;2023-07-29T05:09:23;10.45;;;7.45;;
29908;SDS011;36247;51.952;6.146;2023-07-29T05:11:49;9.20;;;7.43;;
29908;SDS011;36247;51.952;6.146;2023-07-29T05:14:15;8.75;;;7.25;;
29908;SDS011;36247;51.952;6.146;2023-07-29T05:16:43;11.65;;;7.28;;
29908;SDS011;36247;51.952;6.146;2023-07-29T05:19:09;7.85;;;5.40;;
29908;SDS011;36247;51.952;6.146;2023-07-29T05:21:37;7.45;;;5.43;;
29908;SDS011;36247;51.952;6.146;2023-07-29T05:24:03;8.98;;;5.35;;
29908;SDS011;36247;51.952;6.146;2023-07-29T05:26:29;8.15;;;5.28;;
29908;SDS011;36247;51.952;6.146;2023-07-29T05:28:55;5.50;;;4.60;;
29908;SDS011;36247;51.952;6.146;2023-07-29T05:31:21;5.72;;;4.40;;
29908;SDS011;36247;51.952;6.146;2023-07-29T05:33:47;5.72;;;4.70;;
29908;SDS011;36247;51.952;6.146;2023-07-29T05:36:13;7.03;;;4.40;;
29908;SDS011;36247;51.952;6.146;2023-07-29T05:38:43;7.00;;;4.93;;
29908;SDS011;36247;51.952;6.146;2023-07-29T05:41:09;7.82;;;4.57;;
29908;SDS011;36247;51.952;6.146;2023-07-29T05:43:38;6.00;;;4.80;;
29908;SDS011;36247;51.952;6.146;2023-07-29T05:46:14;7.35;;;4.75;;
29908;SDS011;36247;51.952;6.146;2023-07-29T05:48:42;8.10;;;5.40;;
29908;SDS011;36247;51.952;6.146;2023-07-29T05:51:09;12.98;;;5.55;;
29908;SDS011;36247;51.952;6.146;2023-07-29T05:53:36;10.50;;;5.32;;
29908;SDS011;36247;51.952;6.146;2023-07-29T05:56:02;9.60;;;5.65;;
29908;SDS011;36247;51.952;6.146;2023-07-29T05:58:28;11.65;;;5.43;;
29908;SDS011;36247;51.952;6.146;2023-07-29T06:00:56;8.18;;;5.32;;
29908;SDS011;36247;51.952;6.146;2023-07-29T06:03:23;7.82;;;5.70;;
29908;SDS011;36247;51.952;6.146;2023-07-29T06:05:50;9.18;;;5.78;;
29908;SDS011;36247;51.952;6.146;2023-07-29T06:08:16;8.95;;;6.10;;
29908;SDS011;36247;51.952;6.146;2023-07-29T06:10:43;8.77;;;5.57;;
29908;SDS011;36247;51.952;6.146;2023-07-29T06:13:10;7.75;;;6.07;;
29908;SDS011;36247;51.952;6.146;2023-07-29T06:15:42;8.20;;;5.40;;
29908;SDS011;36247;51.952;6.146;2023-07-29T06:18:13;10.18;;;5.50;;
29908;SDS011;36247;51.952;6.146;2023-07-29T06:20:42;9.20;;;5.72;;
29908;SDS011;36247;51.952;6.146;2023-07-29T06:23:09;11.57;;;6.75;;
29908;SDS011;36247;51.952;6.146;2023-07-29T06:25:45;8.50;;;5.65;;
29908;SDS011;36247;51.952;6.146;2023-07-29T06:28:13;9.43;;;5.80;;
29908;SDS011;36247;51.952;6.146;2023-07-29T06:30:42;7.68;;;5.57;;
29908;SDS011;36247;51.952;6.146;2023-07-29T06:33:11;9.10;;;6.03;;
29908;SDS011;36247;51.952;6.146;2023-07-29T06:35:43;9.38;;;6.00;;
29908;SDS011;36247;51.952;6.146;2023-07-29T06:38:09;8.68;;;6.28;;
29908;SDS011;36247;51.952;6.146;2023-07-29T06:40:34;9.48;;;6.28;;
29908;SDS011;36247;51.952;6.146;2023-07-29T06:43:00;10.95;;;5.72;;
29908;SDS011;36247;51.952;6.146;2023-07-29T06:45:26;12.30;;;6.50;;
29908;SDS011;36247;51.952;6.146;2023-07-29T06:47:52;13.50;;;6.88;;
29908;SDS011;36247;51.952;6.146;2023-07-29T06:50:17;7.85;;;6.50;;
29908;SDS011;36247;51.952;6.146;2023-07-29T06:52:44;9.00;;;6.70;;
29908;SDS011;36247;51.952;6.146;2023-07-29T06:55:13;7.93;;;5.95;;
29908;SDS011;36247;51.952;6.146;2023-07-29T06:57:41;10.43;;;6.60;;
29908;SDS011;36247;51.952;6.146;2023-07-29T07:00:09;11.77;;;6.40;;
29908;SDS011;36247;51.952;6.146;2023-07-29T07:02:38;10.95;;;6.55;;
29908;SDS011;36247;51.952;6.146;2023-07-29T07:05:08;8.88;;;6.88;;
29908;SDS011;36247;51.952;6.146;2023-07-29T07:07:34;10.35;;;6.60;;
29908;SDS011;36247;51.952;6.146;2023-07-29T07:10:00;14.75;;;6.32;;
29908;SDS011;36247;51.952;6.146;2023-07-29T07:12:26;9.38;;;6.50;;
29908;SDS011;36247;51.952;6.146;2023-07-29T07:14:51;11.07;;;6.45;;
29908;SDS011;36247;51.952;6.146;2023-07-29T07:17:17;9.40;;;6.35;;
29908;SDS011;36247;51.952;6.146;2023-07-29T07:19:44;11.38;;;7.38;;
29908;SDS011;36247;51.952;6.146;2023-07-29T07:22:09;7.03;;;5.35;;
29908;SDS011;36247;51.952;6.146;2023-07-29T07:24:38;7.57;;;5.18;;
29908;SDS011;36247;51.952;6.146;2023-07-29T07:27:04;9.20;;;5.70;;
29908;SDS011;36247;51.952;6.146;2023-07-29T07:29:30;9.30;;;6.15;;
29908;SDS011;36247;51.952;6.146;2023-07-29T07:31:56;7.25;;;5.70;;
29908;SDS011;36247;51.952;6.146;2023-07-29T07:34:22;11.52;;;6.32;;
29908;SDS011;36247;51.952;6.146;2023-07-29T07:36:48;11.13;;;6.10;;
29908;SDS011;36247;51.952;6.146;2023-07-29T07:39:15;8.73;;;5.90;;
29908;SDS011;36247;51.952;6.146;2023-07-29T07:41:42;8.43;;;6.15;;
29908;SDS011;36247;51.952;6.146;2023-07-29T07:44:09;9.98;;;5.60;;
29908;SDS011;36247;51.952;6.146;2023-07-29T07:46:42;11.27;;;6.35;;
29908;SDS011;36247;51.952;6.146;2023-07-29T07:49:11;6.95;;;6.00;;
29908;SDS011;36247;51.952;6.146;2023-07-29T07:51:43;9.00;;;5.60;;
29908;SDS011;36247;51.952;6.146;2023-07-29T07:54:10;9.65;;;6.47;;
29908;SDS011;36247;51.952;6.146;2023-07-29T07:56:38;8.88;;;5.90;;
29908;SDS011;36247;51.952;6.146;2023-07-29T07:59:04;7.90;;;6.32;;
29908;SDS011;36247;51.952;6.146;2023-07-29T08:01:36;14.57;;;7.20;;
29908;SDS011;36247;51.952;6.146;2023-07-29T08:06:28;9.73;;;7.40;;
29908;SDS011;36247;51.952;6.146;2023-07-29T08:08:55;7.35;;;6.20;;
29908;SDS011;36247;51.952;6.146;2023-07-29T08:11:20;9.63;;;6.70;;
29908;SDS011;36247;51.952;6.146;2023-07-29T08:13:46;6.50;;;5.72;;
29908;SDS011;36247;51.952;6.146;2023-07-29T08:16:14;8.20;;;6.38;;
29908;SDS011;36247;51.952;6.146;2023-07-29T08:18:43;8.82;;;5.82;;
29908;SDS011;36247;51.952;6.146;2023-07-29T08:21:09;10.43;;;6.85;;
29908;SDS011;36247;51.952;6.146;2023-07-29T08:23:42;7.25;;;6.30;;
29908;SDS011;36247;51.952;6.146;2023-07-29T08:26:09;7.00;;;6.40;;
29908;SDS011;36247;51.952;6.146;2023-07-29T08:28:37;8.07;;;6.10;;
29908;SDS011;36247;51.952;6.146;2023-07-29T08:31:08;9.98;;;6.28;;
29908;SDS011;36247;51.952;6.146;2023-07-29T08:33:34;14.60;;;7.93;;
29908;SDS011;36247;51.952;6.146;2023-07-29T08:36:00;10.80;;;6.63;;
29908;SDS011;36247;51.952;6.146;2023-07-29T08:38:25;6.63;;;5.97;;
29908;SDS011;36247;51.952;6.146;2023-07-29T08:43:44;8.15;;;6.20;;
29908;SDS011;36247;51.952;6.146;2023-07-29T08:46:19;7.03;;;5.50;;
29908;SDS011;36247;51.952;6.146;2023-07-29T08:48:45;5.90;;;5.30;;
29908;SDS011;36247;51.952;6.146;2023-07-29T08:51:12;6.25;;;5.60;;
29908;SDS011;36247;51.952;6.146;2023-07-29T08:53:42;7.70;;;5.38;;
29908;SDS011;36247;51.952;6.146;2023-07-29T08:56:09;6.53;;;5.30;;
29908;SDS011;36247;51.952;6.146;2023-07-29T08:58:43;5.40;;;4.90;;
29908;SDS011;36247;51.952;6.146;2023-07-29T09:01:09;6.05;;;4.75;;
29908;SDS011;36247;51.952;6.146;2023-07-29T09:03:44;5.28;;;4.78;;
29908;SDS011;36247;51.952;6.146;2023-07-29T09:06:10;6.72;;;4.13;;
29908;SDS011;36247;51.952;6.146;2023-07-29T09:08:42;5.40;;;3.65;;
29908;SDS011;36247;51.952;6.146;2023-07-29T09:11:12;4.57;;;4.18;;
29908;SDS011;36247;51.952;6.146;2023-07-29T09:13:44;6.13;;;3.60;;
29908;SDS011;36247;51.952;6.146;2023-07-29T09:16:11;4.95;;;4.38;;
29908;SDS011;36247;51.952;6.146;2023-07-29T09:18:43;5.20;;;4.40;;
29908;SDS011;36247;51.952;6.146;2023-07-29T09:21:09;5.85;;;3.63;;
29908;SDS011;36247;51.952;6.146;2023-07-29T09:23:42;6.30;;;3.47;;
29908;SDS011;36247;51.952;6.146;2023-07-29T09:26:10;7.38;;;4.43;;
29908;SDS011;36247;51.952;6.146;2023-07-29T09:28:39;3.88;;;3.20;;
29908;SDS011;36247;51.952;6.146;2023-07-29T09:31:18;4.45;;;3.53;;
29908;SDS011;36247;51.952;6.146;2023-07-29T09:33:45;4.68;;;3.15;;
29908;SDS011;36247;51.952;6.146;2023-07-29T09:36:12;5.10;;;3.10;;
29908;SDS011;36247;51.952;6.146;2023-07-29T09:38:42;4.63;;;3.10;;
29908;SDS011;36247;51.952;6.146;2023-07-29T09:41:16;5.40;;;3.80;;
29908;SDS011;36247;51.952;6.146;2023-07-29T09:43:43;3.95;;;3.55;;
29908;SDS011;36247;51.952;6.146;2023-07-29T09:46:09;5.20;;;3.40;;
29908;SDS011;36247;51.952;6.146;2023-07-29T09:48:35;4.00;;;3.42;;
29908;SDS011;36247;51.952;6.146;2023-07-29T09:51:13;3.30;;;2.97;;
29908;SDS011;36247;51.952;6.146;2023-07-29T09:53:42;6.63;;;3.15;;
29908;SDS011;36247;51.952;6.146;2023-07-29T09:56:12;4.80;;;3.15;;
29908;SDS011;36247;51.952;6.146;2023-07-29T09:58:42;4.13;;;3.40;;
29908;SDS011;36247;51.952;6.146;2023-07-29T10:01:12;3.58;;;3.00;;
29908;SDS011;36247;51.952;6.146;2023-07-29T10:03:44;3.67;;;3.30;;
29908;SDS011;36247;51.952;6.146;2023-07-29T10:06:11;4.30;;;3.17;;
29908;SDS011;36247;51.952;6.146;2023-07-29T10:08:43;6.82;;;3.30;;
29908;SDS011;36247;51.952;6.146;2023-07-29T10:11:19;6.40;;;3.75;;
29908;SDS011;36247;51.952;6.146;2023-07-29T10:13:47;5.20;;;3.25;;
29908;SDS011;36247;51.952;6.146;2023-07-29T10:16:13;5.50;;;3.83;;
29908;SDS011;36247;51.952;6.146;2023-07-29T10:18:43;3.92;;;3.10;;
29908;SDS011;36247;51.952;6.146;2023-07-29T10:21:09;4.22;;;3.58;;
29908;SDS011;36247;51.952;6.146;2023-07-29T10:23:44;4.80;;;3.75;;
29908;SDS011;36247;51.952;6.146;2023-07-29T10:26:15;3.95;;;3.20;;
29908;SDS011;36247;51.952;6.146;2023-07-29T10:28:47;3.97;;;3.50;;
29908;SDS011;36247;51.952;6.146;2023-07-29T10:31:16;6.78;;;3.47;;
29908;SDS011;36247;51.952;6.146;2023-07-29T10:33:45;5.53;;;3.60;;
29908;SDS011;36247;51.952;6.146;2023-07-29T10:36:13;5.18;;;3.63;;
29908;SDS011;36247;51.952;6.146;2023-07-29T10:38:44;4.97;;;3.50;;
29908;SDS011;36247;51.952;6.146;2023-07-29T10:41:10;4.55;;;3.20;;
29908;SDS011;36247;51.952;6.146;2023-07-29T10:43:41;5.30;;;3.63;;
29908;SDS011;36247;51.952;6.146;2023-07-29T10:46:21;4.05;;;3.65;;
29908;SDS011;36247;51.952;6.146;2023-07-29T10:54:15;7.60;;;4.38;;
29908;SDS011;36247;51.952;6.146;2023-07-29T10:56:47;6.15;;;4.07;;
29908;SDS011;36247;51.952;6.146;2023-07-29T11:02:12;5.70;;;4.35;;
29908;SDS011;36247;51.952;6.146;2023-07-29T11:04:50;5.78;;;4.00;;
29908;SDS011;36247;51.952;6.146;2023-07-29T11:15:07;3.63;;;3.08;;
29908;SDS011;36247;51.952;6.146;2023-07-29T11:17:58;5.95;;;3.97;;
29908;SDS011;36247;51.952;6.146;2023-07-29T11:22:54;5.60;;;3.22;;
29908;SDS011;36247;51.952;6.146;2023-07-29T11:25:21;3.97;;;3.17;;
29908;SDS011;36247;51.952;6.146;2023-07-29T11:27:47;4.65;;;3.08;;
29908;SDS011;36247;51.952;6.146;2023-07-29T11:30:14;3.67;;;2.55;;
29908;SDS011;36247;51.952;6.146;2023-07-29T11:32:43;4.25;;;2.97;;
29908;SDS011;36247;51.952;6.146;2023-07-29T11:35:13;3.17;;;2.67;;
29908;SDS011;36247;51.952;6.146;2023-07-29T11:37:44;3.83;;;2.45;;
29908;SDS011;36247;51.952;6.146;2023-07-29T11:40:20;3.42;;;2.75;;
29908;SDS011;36247;51.952;6.146;2023-07-29T11:42:48;3.15;;;2.63;;
29908;SDS011;36247;51.952;6.146;2023-07-29T11:45:16;2.70;;;2.50;;
29908;SDS011;36247;51.952;6.146;2023-07-29T11:47:45;3.08;;;2.30;;
29908;SDS011;36247;51.952;6.146;2023-07-29T11:50:13;2.38;;;2.17;;
29908;SDS011;36247;51.952;6.146;2023-07-29T11:52:44;3.75;;;2.55;;
29908;SDS011;36247;51.952;6.146;2023-07-29T11:55:14;3.58;;;2.20;;
29908;SDS011;36247;51.952;6.146;2023-07-29T11:57:43;2.78;;;2.10;;
29908;SDS011;36247;51.952;6.146;2023-07-29T12:00:15;3.13;;;2.00;;
29908;SDS011;36247;51.952;6.146;2023-07-29T12:02:43;4.28;;;2.40;;
29908;SDS011;36247;51.952;6.146;2023-07-29T12:05:14;3.78;;;2.28;;
29908;SDS011;36247;51.952;6.146;2023-07-29T12:07:43;2.58;;;2.35;;
29908;SDS011;36247;51.952;6.146;2023-07-29T12:10:13;2.58;;;2.30;;
29908;SDS011;36247;51.952;6.146;2023-07-29T12:12:46;2.88;;;2.40;;
29908;SDS011;36247;51.952;6.146;2023-07-29T12:15:30;5.18;;;2.45;;
29908;SDS011;36247;51.952;6.146;2023-07-29T12:17:56;5.82;;;2.90;;
29908;SDS011;36247;51.952;6.146;2023-07-29T12:20:22;8.15;;;4.10;;
29908;SDS011;36247;51.952;6.146;2023-07-29T12:22:52;6.80;;;4.28;;
29908;SDS011;36247;51.952;6.146;2023-07-29T12:25:28;8.75;;;4.93;;
29908;SDS011;36247;51.952;6.146;2023-07-29T12:27:54;11.00;;;4.75;;
29908;SDS011;36247;51.952;6.146;2023-07-29T12:30:20;7.80;;;4.47;;
29908;SDS011;36247;51.952;6.146;2023-07-29T12:32:47;5.57;;;3.53;;
29908;SDS011;36247;51.952;6.146;2023-07-29T12:35:13;3.78;;;2.80;;
29908;SDS011;36247;51.952;6.146;2023-07-29T12:37:41;4.28;;;2.92;;
29908;SDS011;36247;51.952;6.146;2023-07-29T12:40:20;6.20;;;2.67;;
29908;SDS011;36247;51.952;6.146;2023-07-29T12:42:47;3.05;;;2.75;;
29908;SDS011;36247;51.952;6.146;2023-07-29T12:45:15;4.60;;;2.60;;
29908;SDS011;36247;51.952;6.146;2023-07-29T12:47:44;3.35;;;2.65;;
29908;SDS011;36247;51.952;6.146;2023-07-29T12:50:10;6.30;;;2.35;;
29908;SDS011;36247;51.952;6.146;2023-07-29T12:52:39;4.30;;;2.40;;
29908;SDS011;36247;51.952;6.146;2023-07-29T12:55:09;4.32;;;2.78;;
29908;SDS011;36247;51.952;6.146;2023-07-29T12:57:39;4.07;;;2.28;;
29908;SDS011;36247;51.952;6.146;2023-07-29T13:00:09;4.18;;;2.60;;
29908;SDS011;36247;51.952;6.146;2023-07-29T13:02:35;3.20;;;2.00;;
29908;SDS011;36247;51.952;6.146;2023-07-29T13:05:00;3.78;;;2.30;;
29908;SDS011;36247;51.952;6.146;2023-07-29T13:07:26;2.80;;;1.83;;
29908;SDS011;36247;51.952;6.146;2023-07-29T13:09:51;1.73;;;1.52;;
29908;SDS011;36247;51.952;6.146;2023-07-29T13:12:17;2.45;;;1.80;;
29908;SDS011;36247;51.952;6.146;2023-07-29T13:14:46;2.95;;;1.83;;
29908;SDS011;36247;51.952;6.146;2023-07-29T13:17:13;9.02;;;2.60;;
29908;SDS011;36247;51.952;6.146;2023-07-29T13:19:39;3.75;;;2.00;;
29908;SDS011;36247;51.952;6.146;2023-07-29T13:22:13;3.33;;;2.88;;
29908;SDS011;36247;51.952;6.146;2023-07-29T13:24:43;3.30;;;2.67;;
29908;SDS011;36247;51.952;6.146;2023-07-29T13:27:09;3.45;;;2.70;;
29908;SDS011;36247;51.952;6.146;2023-07-29T13:29:43;4.68;;;2.90;;
29908;SDS011;36247;51.952;6.146;2023-07-29T13:32:09;3.28;;;2.80;;
29908;SDS011;36247;51.952;6.146;2023-07-29T13:34:35;4.97;;;3.08;;
29908;SDS011;36247;51.952;6.146;2023-07-29T13:37:00;4.43;;;3.33;;
29908;SDS011;36247;51.952;6.146;2023-07-29T13:39:26;4.03;;;3.00;;
29908;SDS011;36247;51.952;6.146;2023-07-29T13:41:52;6.22;;;3.45;;
29908;SDS011;36247;51.952;6.146;2023-07-29T13:44:18;3.33;;;3.03;;
29908;SDS011;36247;51.952;6.146;2023-07-29T13:46:44;4.80;;;3.05;;
29908;SDS011;36247;51.952;6.146;2023-07-29T13:49:09;4.68;;;3.30;;
29908;SDS011;36247;51.952;6.146;2023-07-29T13:51:48;5.35;;;2.58;;
29908;SDS011;36247;51.952;6.146;2023-07-29T13:54:15;2.70;;;2.50;;
29908;SDS011;36247;51.952;6.146;2023-07-29T13:56:46;6.07;;;2.42;;
29908;SDS011;36247;51.952;6.146;2023-07-29T13:59:13;3.35;;;2.60;;
29908;SDS011;36247;51.952;6.146;2023-07-29T14:01:41;2.80;;;2.60;;
29908;SDS011;36247;51.952;6.146;2023-07-29T14:04:09;4.07;;;2.35;;
29908;SDS011;36247;51.952;6.146;2023-07-29T14:06:34;2.55;;;2.35;;
29908;SDS011;36247;51.952;6.146;2023-07-29T14:09:00;2.25;;;1.98;;
29908;SDS011;36247;51.952;6.146;2023-07-29T14:11:25;3.55;;;2.25;;
29908;SDS011;36247;51.952;6.146;2023-07-29T14:13:51;3.08;;;2.35;;
29908;SDS011;36247;51.952;6.146;2023-07-29T14:16:16;1.92;;;1.73;;
29908;SDS011;36247;51.952;6.146;2023-07-29T14:18:43;2.17;;;1.98;;
29908;SDS011;36247;51.952;6.146;2023-07-29T14:21:09;4.43;;;2.13;;
29908;SDS011;36247;51.952;6.146;2023-07-29T14:23:34;2.25;;;2.00;;
29908;SDS011;36247;51.952;6.146;2023-07-29T14:26:00;2.17;;;1.98;;
29908;SDS011;36247;51.952;6.146;2023-07-29T14:28:26;1.90;;;1.75;;
29908;SDS011;36247;51.952;6.146;2023-07-29T14:30:51;2.72;;;2.33;;
29908;SDS011;36247;51.952;6.146;2023-07-29T14:33:17;3.20;;;2.45;;
29908;SDS011;36247;51.952;6.146;2023-07-29T14:35:44;5.75;;;2.58;;
29908;SDS011;36247;51.952;6.146;2023-07-29T14:38:11;3.08;;;2.47;;
29908;SDS011;36247;51.952;6.146;2023-07-29T14:40:41;2.17;;;1.92;;
29908;SDS011;36247;51.952;6.146;2023-07-29T14:43:15;2.33;;;2.10;;
29908;SDS011;36247;51.952;6.146;2023-07-29T14:45:42;2.20;;;2.00;;
29908;SDS011;36247;51.952;6.146;2023-07-29T14:48:09;2.63;;;2.30;;
29908;SDS011;36247;51.952;6.146;2023-07-29T14:50:35;3.88;;;2.00;;
29908;SDS011;36247;51.952;6.146;2023-07-29T14:53:00;2.40;;;2.20;;
29908;SDS011;36247;51.952;6.146;2023-07-29T14:55:26;2.50;;;2.17;;
29908;SDS011;36247;51.952;6.146;2023-07-29T14:57:51;3.10;;;2.28;;
29908;SDS011;36247;51.952;6.146;2023-07-29T15:00:17;3.60;;;2.10;;
29908;SDS011;36247;51.952;6.146;2023-07-29T15:02:44;2.50;;;1.98;;
29908;SDS011;36247;51.952;6.146;2023-07-29T15:05:12;2.65;;;2.17;;
29908;SDS011;36247;51.952;6.146;2023-07-29T15:07:43;3.22;;;2.00;;
29908;SDS011;36247;51.952;6.146;2023-07-29T15:10:09;3.60;;;2.30;;
29908;SDS011;36247;51.952;6.146;2023-07-29T15:12:43;2.85;;;2.03;;